Time;durP1;ratioP1;P1;durP2;ratioP2;P2;SDS_P1;SDS_P2;PMS_P1;PMS_P2;Temp;Humidity;BMP_temperature;BMP_pressure;BME280_temperature;BME280_humidity;BME280_pressure;Samples;Min_cycle;Max_cycle;Signal;HPM_P1;HPM_P2
2021/01/11 00:01:43;;;;;;;;;;;2.80;96.10;;;;;;4359521;32;43961;-46
2021/01/11 00:04:11;;;;;;;;;;;2.80;96.00;;;;;;4359838;33;42827;-46
2021/01/11 00:06:38;;;;;;;;;;;2.80;96.10;;;;;;4359771;33;43227;-46
2021/01/11 00:09:06;;;;;;;;;;;2.80;96.10;;;;;;4359793;33;43293;-46
2021/01/11 00:11:34;;;;;;;;;;;2.80;96.10;;;;;;4358766;33;44213;-46
2021/01/11 00:14:03;;;;;;;;;;;2.80;96.00;;;;;;4346478;33;41905;-46
2021/01/11 00:16:31;;;;;;;;;;;2.80;96.10;;;;;;4359870;33;44403;-46
2021/01/11 00:18:58;;;;;;;;;;;2.80;96.00;;;;;;4346429;33;33223;-46
2021/01/11 00:21:24;;;;;;;;;;;2.80;95.90;;;;;;4359721;32;43187;-46
2021/01/11 00:23:51;;;;;;;;;;;2.80;96.00;;;;;;4362019;32;43160;-46
2021/01/11 00:26:18;;;;;;;;;;;2.80;96.00;;;;;;4362014;32;42353;-46
2021/01/11 00:28:45;;;;;;;;;;;2.80;96.10;;;;;;4362024;32;43996;-47
2021/01/11 00:31:12;;;;;;;;;;;2.80;96.10;;;;;;4362129;32;44129;-46
2021/01/11 00:33:39;;;;;;;;;;;2.80;96.10;;;;;;4362545;32;30217;-46
2021/01/11 00:36:10;;;;;;;;;;;2.80;96.10;;;;;;4362109;32;43245;-47
2021/01/11 00:38:37;;;;;;;;;;;2.80;96.10;;;;;;4362304;32;43253;-46
2021/01/11 00:41:04;;;;;;;;;;;2.80;96.10;;;;;;4348616;32;43951;-46
2021/01/11 00:43:30;;;;;;;;;;;2.80;96.10;;;;;;4348690;32;30486;-46
2021/01/11 00:45:58;;;;;;;;;;;2.80;96.10;;;;;;4362009;32;41997;-46
2021/01/11 00:48:24;;;;;;;;;;;2.80;96.00;;;;;;4361995;32;43124;-46
2021/01/11 00:50:51;;;;;;;;;;;2.80;96.00;;;;;;4362000;32;42362;-46
2021/01/11 00:53:17;;;;;;;;;;;2.80;96.00;;;;;;4361842;32;42803;-46
2021/01/11 00:55:44;;;;;;;;;;;2.80;96.00;;;;;;4361676;32;42372;-46
2021/01/11 00:58:11;;;;;;;;;;;2.80;96.10;;;;;;4361708;32;42206;-46
2021/01/11 01:00:37;;;;;;;;;;;2.70;96.10;;;;;;4361917;32;42915;-47
2021/01/11 01:03:04;;;;;;;;;;;2.80;96.00;;;;;;4361845;32;42840;-46
2021/01/11 01:05:30;;;;;;;;;;;2.80;96.10;;;;;;4361692;32;42240;-46
2021/01/11 01:07:58;;;;;;;;;;;2.70;96.10;;;;;;4361405;32;44370;-46
2021/01/11 01:10:24;;;;;;;;;;;2.80;96.20;;;;;;4361625;32;43221;-47
2021/01/11 01:12:51;;;;;;;;;;;2.70;96.10;;;;;;4361506;32;44182;-47
2021/01/11 01:15:17;;;;;;;;;;;2.70;96.10;;;;;;4361548;32;44202;-49
2021/01/11 01:17:44;;;;;;;;;;;2.70;96.00;;;;;;4348443;32;31799;-49
2021/01/11 01:20:17;;;;;;;;;;;2.70;96.00;;;;;;4348202;32;44166;-47
2021/01/11 01:22:47;;;;;;;;;;;2.70;96.20;;;;;;4361708;32;44198;-47
2021/01/11 01:25:14;;;;;;;;;;;2.70;96.20;;;;;;4348077;32;30639;-47
2021/01/11 01:27:42;;;;;;;;;;;2.70;96.20;;;;;;4362026;32;30057;-48
2021/01/11 01:30:09;;;;;;;;;;;2.70;96.30;;;;;;4361349;32;44219;-47
2021/01/11 01:32:37;;;;;;;;;;;2.70;96.20;;;;;;4361560;32;20001;-46
2021/01/11 01:35:09;;;;;;;;;;;2.70;96.30;;;;;;4361482;32;42899;-48
2021/01/11 01:37:36;;;;;;;;;;;2.70;96.30;;;;;;4347779;32;43850;-47
2021/01/11 01:40:04;;;;;;;;;;;2.70;96.30;;;;;;4361105;32;44278;-48
2021/01/11 01:42:30;;;;;;;;;;;2.70;96.30;;;;;;4361461;32;30635;-47
2021/01/11 01:44:57;;;;;;;;;;;2.70;96.30;;;;;;4362090;32;20008;-48
2021/01/11 01:47:25;;;;;;;;;;;2.70;96.20;;;;;;4361498;32;31713;-47
2021/01/11 01:49:52;;;;;;;;;;;2.70;96.30;;;;;;4360958;32;44348;-50
2021/01/11 01:52:19;;;;;;;;;;;2.70;96.30;;;;;;4360839;32;44431;-48
2021/01/11 01:54:48;;;;;;;;;;;2.70;96.20;;;;;;4361117;32;43286;-47
2021/01/11 01:57:14;;;;;;;;;;;2.70;96.30;;;;;;4360923;32;44172;-48
2021/01/11 01:59:47;;;;;;;;;;;2.70;96.30;;;;;;4360931;32;44170;-47
2021/01/11 02:02:17;;;;;;;;;;;2.70;96.20;;;;;;4359782;32;30065;-46
2021/01/11 02:04:44;;;;;;;;;;;2.70;96.30;;;;;;4360743;32;43167;-47
2021/01/11 02:07:15;;;;;;;;;;;2.70;96.30;;;;;;4360705;32;42767;-46
2021/01/11 02:09:47;;;;;;;;;;;2.70;96.30;;;;;;4361370;32;29848;-46
2021/01/11 02:12:19;;;;;;;;;;;2.70;96.30;;;;;;4347623;32;41964;-46
2021/01/11 02:14:46;;;;;;;;;;;2.80;96.40;;;;;;4347741;32;30624;-47
2021/01/11 02:17:15;;;;;;;;;;;2.70;96.30;;;;;;4347374;32;31871;-46
2021/01/11 02:19:48;;;;;;;;;;;2.70;96.20;;;;;;4335198;32;33453;-46
2021/01/11 02:22:17;;;;;;;;;;;2.70;96.30;;;;;;4347440;32;30512;-46
2021/01/11 02:24:46;;;;;;;;;;;2.70;96.30;;;;;;4360183;32;43041;-46
2021/01/11 02:27:16;;;;;;;;;;;2.70;96.30;;;;;;4360684;32;43185;-46
2021/01/11 02:29:49;;;;;;;;;;;2.80;96.40;;;;;;4361078;32;29799;-46
2021/01/11 02:32:19;;;;;;;;;;;2.70;96.40;;;;;;4347315;32;30554;-46
2021/01/11 02:34:46;;;;;;;;;;;2.70;96.40;;;;;;4360426;32;43153;-46
2021/01/11 02:37:13;;;;;;;;;;;2.70;96.40;;;;;;4360580;32;44187;-46
2021/01/11 02:39:40;;;;;;;;;;;2.70;96.40;;;;;;4360462;32;42861;-46
2021/01/11 02:42:07;;;;;;;;;;;2.70;96.40;;;;;;4360548;32;44202;-46
2021/01/11 02:44:34;;;;;;;;;;;2.80;96.40;;;;;;4360127;32;44019;-46
2021/01/11 02:47:01;;;;;;;;;;;2.70;96.40;;;;;;4360150;32;42102;-46
2021/01/11 02:49:32;;;;;;;;;;;2.70;96.40;;;;;;4360872;32;30739;-46
2021/01/11 02:52:04;;;;;;;;;;;2.70;96.50;;;;;;4360487;32;42819;-46
2021/01/11 02:54:33;;;;;;;;;;;2.70;96.50;;;;;;4360627;32;42795;-46
2021/01/11 02:57:23;;;;;;;;;;;2.70;96.40;;;;;;4359171;32;44418;-46
2021/01/11 02:59:51;;;;;;;;;;;2.70;96.40;;;;;;4360575;32;30656;-46
2021/01/11 03:02:19;;;;;;;;;;;2.70;96.40;;;;;;4359839;32;43987;-46
2021/01/11 03:04:46;;;;;;;;;;;2.70;96.40;;;;;;4360203;32;44289;-46
2021/01/11 03:07:13;;;;;;;;;;;2.70;96.40;;;;;;4360268;32;42729;-46
2021/01/11 03:09:40;;;;;;;;;;;2.70;96.40;;;;;;4359991;32;42316;-46
2021/01/11 03:12:08;;;;;;;;;;;2.70;96.40;;;;;;4360056;33;44418;-46
2021/01/11 03:14:34;;;;;;;;;;;2.70;96.40;;;;;;4346923;33;32288;-47
2021/01/11 03:17:01;;;;;;;;;;;2.70;96.40;;;;;;4360228;32;42920;-46
2021/01/11 03:19:28;;;;;;;;;;;2.70;96.40;;;;;;4347217;33;32934;-46
2021/01/11 03:21:55;;;;;;;;;;;2.70;96.40;;;;;;4360178;32;43271;-47
2021/01/11 03:24:22;;;;;;;;;;;2.70;96.50;;;;;;4360111;32;43313;-46
2021/01/11 03:26:49;;;;;;;;;;;2.70;96.40;;;;;;4360678;33;29579;-46
2021/01/11 03:29:17;;;;;;;;;;;2.70;96.40;;;;;;4360031;32;43324;-46
2021/01/11 03:31:45;;;;;;;;;;;2.70;96.40;;;;;;4359612;33;42898;-46
2021/01/11 03:34:12;;;;;;;;;;;2.70;96.40;;;;;;4346518;33;32318;-46
2021/01/11 03:36:39;;;;;;;;;;;2.70;96.40;;;;;;4359925;32;44080;-46
2021/01/11 03:39:07;;;;;;;;;;;2.70;96.40;;;;;;4360014;33;20015;-46
2021/01/11 03:41:35;;;;;;;;;;;2.70;96.50;;;;;;4359854;33;44322;-46
2021/01/11 03:44:03;;;;;;;;;;;2.70;96.50;;;;;;4359842;33;44007;-46
2021/01/11 03:46:30;;;;;;;;;;;2.70;96.50;;;;;;4359930;32;42311;-46
2021/01/11 03:48:58;;;;;;;;;;;2.70;96.50;;;;;;4359603;33;42677;-46
2021/01/11 03:51:25;;;;;;;;;;;2.70;96.50;;;;;;4359696;32;42282;-46
2021/01/11 03:53:52;;;;;;;;;;;2.70;96.50;;;;;;4359742;32;42344;-46
2021/01/11 03:56:20;;;;;;;;;;;2.70;96.50;;;;;;4359792;32;44627;-46
2021/01/11 03:58:47;;;;;;;;;;;2.70;96.80;;;;;;4362433;32;42785;-46
2021/01/11 04:01:13;;;;;;;;;;;2.70;96.50;;;;;;4362517;32;44232;-47
2021/01/11 04:03:40;;;;;;;;;;;2.70;96.40;;;;;;4362757;32;43147;-46
2021/01/11 04:06:07;;;;;;;;;;;2.70;96.50;;;;;;4362460;32;44220;-46
2021/01/11 04:08:34;;;;;;;;;;;2.70;96.50;;;;;;4362823;32;30272;-46
2021/01/11 04:11:01;;;;;;;;;;;2.70;96.40;;;;;;4349102;32;43825;-47
2021/01/11 04:13:27;;;;;;;;;;;2.70;96.30;;;;;;4362536;32;43864;-46
2021/01/11 04:15:57;;;;;;;;;;;2.70;96.40;;;;;;4349317;32;33489;-46
2021/01/11 04:18:24;;;;;;;;;;;2.70;96.30;;;;;;4362536;32;43161;-46
2021/01/11 04:20:51;;;;;;;;;;;2.70;96.20;;;;;;4362481;32;44254;-46
2021/01/11 04:23:18;;;;;;;;;;;2.70;96.20;;;;;;4362957;32;30751;-46
2021/01/11 04:25:44;;;;;;;;;;;2.70;96.10;;;;;;4362227;32;44313;-46
2021/01/11 04:28:11;;;;;;;;;;;2.70;96.20;;;;;;4362338;32;42202;-46
2021/01/11 04:30:38;;;;;;;;;;;2.70;96.20;;;;;;4361922;32;44463;-46
2021/01/11 04:33:05;;;;;;;;;;;2.70;96.20;;;;;;4362369;32;31384;-47
2021/01/11 04:35:32;;;;;;;;;;;2.70;96.10;;;;;;4362006;32;43235;-46
2021/01/11 04:37:58;;;;;;;;;;;2.70;96.10;;;;;;4362058;32;44249;-46
2021/01/11 04:40:25;;;;;;;;;;;2.70;96.20;;;;;;4362094;32;42003;-46
2021/01/11 04:43:01;;;;;;;;;;;2.70;96.10;;;;;;4362087;32;42278;-46
2021/01/11 04:45:27;;;;;;;;;;;2.60;96.20;;;;;;4362135;32;44199;-48
2021/01/11 04:47:55;;;;;;;;;;;2.70;96.20;;;;;;4361813;32;42344;-47
2021/01/11 04:50:23;;;;;;;;;;;2.60;96.20;;;;;;4360826;32;42224;-46
2021/01/11 04:52:50;;;;;;;;;;;2.70;96.10;;;;;;4361902;32;42313;-47
2021/01/11 04:55:17;;;;;;;;;;;2.60;96.10;;;;;;4361952;32;42242;-47
2021/01/11 04:57:54;;;;;;;;;;;2.60;96.10;;;;;;4361948;32;44054;-48
2021/01/11 05:00:29;;;;;;;;;;;2.60;96.10;;;;;;4362050;32;44191;-48
2021/01/11 05:02:57;;;;;;;;;;;2.60;95.90;;;;;;4361508;32;44122;-47
2021/01/11 05:05:24;;;;;;;;;;;2.60;96.00;;;;;;4361773;32;43151;-47
2021/01/11 05:07:51;;;;;;;;;;;2.60;95.90;;;;;;4361440;32;44186;-48
2021/01/11 05:10:28;;;;;;;;;;;2.60;96.10;;;;;;4361345;32;43276;-48
2021/01/11 05:12:59;;;;;;;;;;;2.60;96.10;;;;;;4349910;32;20057;-48
2021/01/11 05:15:31;;;;;;;;;;;2.60;96.00;;;;;;4361867;32;29532;-47
2021/01/11 05:17:58;;;;;;;;;;;2.60;96.10;;;;;;4360656;32;44219;-48
2021/01/11 05:20:29;;;;;;;;;;;2.60;96.10;;;;;;4361642;32;43855;-47
2021/01/11 05:22:57;;;;;;;;;;;2.60;96.00;;;;;;4348084;32;32197;-47
2021/01/11 05:25:25;;;;;;;;;;;2.60;96.10;;;;;;4361157;32;44234;-48
2021/01/11 05:28:12;;;;;;;;;;;2.60;96.10;;;;;;4361543;32;42122;-47
2021/01/11 05:30:40;;;;;;;;;;;2.60;96.00;;;;;;4348085;32;41773;-49
2021/01/11 05:33:08;;;;;;;;;;;2.60;96.10;;;;;;4348091;32;42015;-48
2021/01/11 05:35:37;;;;;;;;;;;2.60;96.10;;;;;;4347943;32;32516;-50
2021/01/11 05:38:13;;;;;;;;;;;2.60;96.10;;;;;;4361238;32;44244;-46
2021/01/11 05:40:40;;;;;;;;;;;2.60;96.00;;;;;;4361364;32;43211;-46
2021/01/11 05:43:07;;;;;;;;;;;2.60;96.10;;;;;;4361241;32;43125;-46
2021/01/11 05:45:34;;;;;;;;;;;2.60;96.00;;;;;;4361191;32;44226;-47
2021/01/11 05:48:04;;;;;;;;;;;2.60;96.10;;;;;;4347700;32;32383;-46
2021/01/11 05:50:32;;;;;;;;;;;2.60;95.70;;;;;;4347761;32;29849;-47
2021/01/11 05:52:59;;;;;;;;;;;2.60;95.80;;;;;;4360923;32;41984;-46
2021/01/11 05:55:27;;;;;;;;;;;2.60;95.90;;;;;;4360944;32;44205;-46
2021/01/11 05:57:55;;;;;;;;;;;2.60;96.30;;;;;;4361001;32;43157;-46
2021/01/11 06:00:23;;;;;;;;;;;2.60;95.80;;;;;;4361038;32;41713;-46
2021/01/11 06:02:50;;;;;;;;;;;2.60;95.80;;;;;;4359474;32;41962;-46
2021/01/11 06:05:18;;;;;;;;;;;2.60;95.70;;;;;;4360622;32;43869;-46
2021/01/11 06:07:45;;;;;;;;;;;2.60;95.70;;;;;;4347381;32;43890;-47
2021/01/11 06:10:16;;;;;;;;;;;2.50;95.80;;;;;;4359728;32;42209;-46
2021/01/11 06:12:43;;;;;;;;;;;2.60;95.70;;;;;;4359884;32;44226;-46
2021/01/11 06:15:11;;;;;;;;;;;2.50;95.70;;;;;;4359370;32;44224;-46
2021/01/11 06:17:39;;;;;;;;;;;2.50;95.70;;;;;;4359426;32;44189;-46
2021/01/11 06:20:07;;;;;;;;;;;2.50;95.60;;;;;;4346839;32;31846;-46
2021/01/11 06:23:00;;;;;;;;;;;2.50;95.70;;;;;;4361295;32;29839;-46
2021/01/11 06:25:30;;;;;;;;;;;2.50;95.70;;;;;;4346067;32;31848;-46
2021/01/11 06:28:01;;;;;;;;;;;2.50;95.60;;;;;;4360349;32;43161;-48
2021/01/11 06:30:38;;;;;;;;;;;2.50;95.50;;;;;;4360694;32;43888;-46
2021/01/11 06:33:08;;;;;;;;;;;2.50;95.70;;;;;;4347657;32;31069;-46
2021/01/11 06:35:41;;;;;;;;;;;2.50;95.80;;;;;;4347414;32;30515;-46
2021/01/11 06:38:22;;;;;;;;;;;2.50;95.90;;;;;;4360226;32;44246;-46
2021/01/11 06:40:54;;;;;;;;;;;2.50;95.80;;;;;;4359271;32;44280;-46
2021/01/11 06:43:22;;;;;;;;;;;2.50;95.70;;;;;;4359523;32;42823;-46
2021/01/11 06:45:50;;;;;;;;;;;2.50;95.90;;;;;;4359944;32;43704;-47
2021/01/11 06:48:20;;;;;;;;;;;2.50;95.90;;;;;;4360439;32;42181;-46
2021/01/11 06:50:49;;;;;;;;;;;2.50;96.00;;;;;;4359442;32;44241;-46
2021/01/11 06:53:35;;;;;;;;;;;2.50;95.90;;;;;;4359031;32;43620;-46
2021/01/11 06:56:09;;;;;;;;;;;2.50;95.90;;;;;;4360763;32;20047;-48
2021/01/11 06:58:37;;;;;;;;;;;2.50;96.00;;;;;;4347211;32;31176;-46
2021/01/11 07:01:08;;;;;;;;;;;2.50;95.90;;;;;;4360183;32;42107;-46
2021/01/11 07:03:42;;;;;;;;;;;2.50;95.70;;;;;;4335144;32;32007;-46
2021/01/11 07:06:28;;;;;;;;;;;2.50;95.80;;;;;;4361407;32;20401;-46
2021/01/11 07:09:14;;;;;;;;;;;2.50;95.80;;;;;;4360249;32;42362;-46
2021/01/11 07:11:51;;;;;;;;;;;2.50;95.90;;;;;;4360210;32;30915;-46
2021/01/11 07:14:21;;;;;;;;;;;2.50;95.90;;;;;;4346762;33;32919;-46
2021/01/11 07:16:55;;;;;;;;;;;2.50;95.80;;;;;;4346696;33;31737;-55
2021/01/11 07:19:23;;;;;;;;;;;2.50;95.90;;;;;;4360684;33;29679;-46
2021/01/11 07:21:49;;;;;;;;;;;2.50;95.90;;;;;;4360107;33;43117;-46
2021/01/11 07:24:16;;;;;;;;;;;2.50;95.70;;;;;;4359770;33;44523;-46
2021/01/11 07:26:43;;;;;;;;;;;2.50;95.80;;;;;;4360135;33;33683;-46
2021/01/11 07:29:11;;;;;;;;;;;2.50;95.80;;;;;;4359018;33;43168;-46
2021/01/11 07:31:41;;;;;;;;;;;2.50;95.80;;;;;;4360857;32;42212;-46
2021/01/11 07:34:11;;;;;;;;;;;2.50;95.90;;;;;;4349602;32;43522;-46
2021/01/11 07:36:39;;;;;;;;;;;2.50;95.90;;;;;;4349944;32;32406;-46
2021/01/11 07:39:11;;;;;;;;;;;2.50;95.90;;;;;;4349612;32;42784;-46
2021/01/11 07:41:39;;;;;;;;;;;2.50;95.80;;;;;;4349675;32;29697;-46
2021/01/11 07:44:10;;;;;;;;;;;2.50;95.70;;;;;;4362810;32;41882;-46
2021/01/11 07:46:37;;;;;;;;;;;2.50;95.70;;;;;;4361894;32;43160;-46
2021/01/11 07:49:11;;;;;;;;;;;2.50;95.60;;;;;;4362876;32;44191;-46
2021/01/11 07:51:38;;;;;;;;;;;2.50;95.70;;;;;;4349607;32;44434;-46
2021/01/11 07:54:06;;;;;;;;;;;2.50;95.70;;;;;;4349306;32;43806;-46
2021/01/11 07:56:33;;;;;;;;;;;2.40;95.60;;;;;;4362919;32;42853;-46
2021/01/11 07:59:03;;;;;;;;;;;2.40;95.70;;;;;;4362827;32;43957;-46
2021/01/11 08:01:30;;;;;;;;;;;2.40;95.70;;;;;;4362881;32;30554;-46
2021/01/11 08:03:58;;;;;;;;;;;2.40;95.70;;;;;;4363408;32;30903;-46
2021/01/11 08:06:24;;;;;;;;;;;2.40;95.70;;;;;;4362642;32;43374;-46
2021/01/11 08:08:52;;;;;;;;;;;2.40;95.80;;;;;;4362516;32;42829;-46
2021/01/11 08:11:20;;;;;;;;;;;2.40;95.80;;;;;;4361459;32;42795;-47
2021/01/11 08:13:47;;;;;;;;;;;2.40;96.10;;;;;;4337213;32;31840;-46
2021/01/11 08:16:14;;;;;;;;;;;2.40;95.90;;;;;;4362539;32;42233;-46
2021/01/11 08:18:41;;;;;;;;;;;2.40;95.90;;;;;;4362583;32;29761;-47
2021/01/11 08:21:09;;;;;;;;;;;2.40;95.90;;;;;;4362204;32;43942;-46
2021/01/11 08:23:37;;;;;;;;;;;2.40;95.90;;;;;;4361434;32;41832;-47
2021/01/11 08:26:06;;;;;;;;;;;2.40;95.90;;;;;;4362243;32;43872;-47
2021/01/11 08:28:33;;;;;;;;;;;2.40;95.90;;;;;;4348999;32;42277;-48
2021/01/11 08:31:00;;;;;;;;;;;2.40;95.90;;;;;;4348864;32;41913;-47
2021/01/11 08:33:29;;;;;;;;;;;2.40;96.00;;;;;;4361956;32;44320;-48
2021/01/11 08:36:14;;;;;;;;;;;2.40;95.90;;;;;;4362016;32;42849;-48
2021/01/11 08:39:07;;;;;;;;;;;2.40;95.90;;;;;;4362513;32;30640;-47
2021/01/11 08:41:38;;;;;;;;;;;2.40;96.30;;;;;;4359589;32;43852;-47
2021/01/11 08:44:07;;;;;;;;;;;2.40;95.90;;;;;;4360698;32;44122;-47
2021/01/11 08:46:53;;;;;;;;;;;2.40;95.90;;;;;;4361828;32;43559;-47
2021/01/11 08:49:23;;;;;;;;;;;2.40;95.90;;;;;;4362463;32;31393;-50
2021/01/11 08:51:53;;;;;;;;;;;2.40;96.00;;;;;;4348707;32;42245;-48
2021/01/11 08:54:27;;;;;;;;;;;2.40;95.90;;;;;;4360726;32;41972;-46
2021/01/11 08:56:55;;;;;;;;;;;2.40;96.00;;;;;;4362531;32;31019;-46
2021/01/11 08:59:23;;;;;;;;;;;2.40;96.00;;;;;;4348465;32;42797;-46
2021/01/11 09:01:50;;;;;;;;;;;2.40;96.00;;;;;;4361569;32;44329;-46
2021/01/11 09:04:34;;;;;;;;;;;2.40;96.00;;;;;;4361794;32;43951;-46
2021/01/11 09:07:07;;;;;;;;;;;2.40;96.00;;;;;;4361340;32;29821;-46
2021/01/11 09:09:36;;;;;;;;;;;2.40;96.00;;;;;;4361920;32;43096;-46
2021/01/11 09:12:07;;;;;;;;;;;2.40;96.10;;;;;;4360253;32;43762;-46
2021/01/11 09:14:35;;;;;;;;;;;2.40;96.10;;;;;;4361764;32;29914;-46
2021/01/11 09:17:06;;;;;;;;;;;2.40;96.10;;;;;;4361276;32;42993;-46
2021/01/11 09:19:38;;;;;;;;;;;2.40;96.20;;;;;;4335995;32;30628;-46
2021/01/11 09:22:14;;;;;;;;;;;2.40;96.20;;;;;;4348774;32;30636;-46
2021/01/11 09:24:42;;;;;;;;;;;2.40;96.10;;;;;;4361021;32;29600;-46
2021/01/11 09:27:10;;;;;;;;;;;2.40;96.10;;;;;;4348165;32;43843;-46
2021/01/11 09:29:37;;;;;;;;;;;2.40;96.10;;;;;;4347876;32;42370;-46
2021/01/11 09:32:05;;;;;;;;;;;2.40;96.10;;;;;;4361318;32;34050;-46
2021/01/11 09:34:32;;;;;;;;;;;2.40;96.10;;;;;;4347997;32;30595;-46
2021/01/11 09:36:58;;;;;;;;;;;2.40;96.00;;;;;;4361515;32;43829;-46
2021/01/11 09:39:26;;;;;;;;;;;2.40;96.10;;;;;;4348135;32;33800;-46
2021/01/11 09:41:54;;;;;;;;;;;2.40;96.10;;;;;;4361311;32;42209;-46
2021/01/11 09:44:21;;;;;;;;;;;2.40;96.10;;;;;;4347775;32;33564;-46
2021/01/11 09:46:52;;;;;;;;;;;2.40;96.10;;;;;;4360917;32;44328;-46
2021/01/11 09:49:22;;;;;;;;;;;2.40;96.10;;;;;;4362001;32;20062;-46
2021/01/11 09:51:49;;;;;;;;;;;2.40;96.20;;;;;;4360015;32;43308;-46
2021/01/11 09:54:16;;;;;;;;;;;2.40;96.10;;;;;;4361148;32;43153;-47
2021/01/11 09:56:43;;;;;;;;;;;2.50;96.20;;;;;;4361327;32;44125;-47
2021/01/11 09:59:10;;;;;;;;;;;2.40;96.20;;;;;;4360774;32;43574;-46
2021/01/11 10:01:44;;;;;;;;;;;2.40;96.20;;;;;;4361025;32;43136;-47
2021/01/11 10:04:15;;;;;;;;;;;2.40;96.20;;;;;;4335694;32;32267;-46
2021/01/11 10:06:46;;;;;;;;;;;2.40;96.10;;;;;;4361323;32;32531;-46
2021/01/11 10:09:14;;;;;;;;;;;2.40;96.20;;;;;;4360924;32;43510;-46
2021/01/11 10:11:43;;;;;;;;;;;2.40;96.20;;;;;;4360591;32;42253;-47
2021/01/11 10:14:13;;;;;;;;;;;2.40;96.20;;;;;;4347749;32;43857;-46
2021/01/11 10:16:41;;;;;;;;;;;2.40;96.10;;;;;;4359965;32;30527;-48
2021/01/11 10:19:15;;;;;;;;;;;2.40;96.10;;;;;;4335457;32;32303;-46
2021/01/11 10:21:42;;;;;;;;;;;2.40;96.10;;;;;;4361247;32;29995;-46
2021/01/11 10:24:10;;;;;;;;;;;2.40;96.10;;;;;;4361414;32;30215;-46
2021/01/11 10:26:43;;;;;;;;;;;2.40;96.00;;;;;;4347183;32;30552;-46
2021/01/11 10:29:11;;;;;;;;;;;2.40;96.10;;;;;;4347316;32;43156;-46
2021/01/11 10:31:38;;;;;;;;;;;2.40;96.10;;;;;;4360554;32;42367;-46
2021/01/11 10:34:05;;;;;;;;;;;2.40;96.00;;;;;;4361005;32;32184;-46
2021/01/11 10:36:39;;;;;;;;;;;2.40;96.00;;;;;;4360161;32;44507;-47
2021/01/11 10:39:09;;;;;;;;;;;2.40;96.00;;;;;;4360806;32;34033;-46
2021/01/11 10:41:35;;;;;;;;;;;2.40;96.00;;;;;;4347164;32;32319;-46
2021/01/11 10:44:05;;;;;;;;;;;2.40;96.00;;;;;;4360407;32;34883;-46
2021/01/11 10:46:32;;;;;;;;;;;2.40;96.00;;;;;;4360528;32;42240;-47
2021/01/11 10:48:59;;;;;;;;;;;2.40;96.00;;;;;;4360225;32;43231;-46
2021/01/11 10:51:26;;;;;;;;;;;2.40;96.10;;;;;;4360082;32;42863;-47
2021/01/11 10:53:53;;;;;;;;;;;2.40;96.00;;;;;;4346955;32;30919;-46
2021/01/11 10:56:20;;;;;;;;;;;2.40;96.10;;;;;;4347104;32;30275;-46
2021/01/11 10:58:48;;;;;;;;;;;2.40;96.10;;;;;;4360623;32;31034;-46
2021/01/11 11:01:15;;;;;;;;;;;2.40;96.10;;;;;;4360040;32;42284;-47
2021/01/11 11:03:42;;;;;;;;;;;2.40;96.10;;;;;;4359935;32;42314;-46
2021/01/11 11:06:09;;;;;;;;;;;2.40;96.20;;;;;;4358586;32;44324;-46
2021/01/11 11:08:37;;;;;;;;;;;2.40;96.20;;;;;;4359948;32;43173;-47
2021/01/11 11:11:04;;;;;;;;;;;2.40;96.20;;;;;;4360315;32;43092;-46
2021/01/11 11:13:31;;;;;;;;;;;2.40;96.20;;;;;;4360080;32;43985;-46
2021/01/11 11:15:58;;;;;;;;;;;2.40;96.30;;;;;;4359796;32;43481;-46
2021/01/11 11:18:25;;;;;;;;;;;2.40;96.30;;;;;;4359818;33;43244;-46
2021/01/11 11:20:52;;;;;;;;;;;2.40;96.30;;;;;;4359864;33;44562;-47
2021/01/11 11:23:21;;;;;;;;;;;2.40;96.30;;;;;;4334903;33;31841;-48
2021/01/11 11:25:51;;;;;;;;;;;2.40;96.30;;;;;;4359952;33;42502;-46
2021/01/11 11:28:21;;;;;;;;;;;2.40;96.30;;;;;;4360126;33;44258;-46
2021/01/11 11:30:48;;;;;;;;;;;2.40;96.40;;;;;;4359687;33;44341;-47
2021/01/11 11:33:18;;;;;;;;;;;2.40;96.30;;;;;;4359769;32;44218;-47
2021/01/11 11:35:44;;;;;;;;;;;2.40;96.30;;;;;;4346452;33;44218;-46
2021/01/11 11:38:11;;;;;;;;;;;2.50;96.40;;;;;;4360185;33;43196;-47
2021/01/11 11:40:39;;;;;;;;;;;2.50;96.40;;;;;;4359957;33;42312;-46
2021/01/11 11:43:34;;;;;;;;;;;2.50;96.40;;;;;;4349753;33;29668;-46
2021/01/11 11:46:02;;;;;;;;;;;2.40;96.40;;;;;;4360906;33;20102;-48
2021/01/11 11:48:31;;;;;;;;;;;2.50;96.40;;;;;;4346579;33;31905;-46
2021/01/11 11:51:00;;;;;;;;;;;2.40;96.50;;;;;;4360291;33;30482;-47
2021/01/11 11:53:30;;;;;;;;;;;2.50;96.50;;;;;;4347101;33;30433;-47
2021/01/11 11:55:57;;;;;;;;;;;2.50;96.50;;;;;;4359585;33;44021;-47
2021/01/11 11:58:23;;;;;;;;;;;2.50;96.50;;;;;;4346511;33;30071;-47
2021/01/11 12:00:51;;;;;;;;;;;2.50;96.50;;;;;;4360470;33;30258;-48
2021/01/11 12:03:21;;;;;;;;;;;2.50;96.60;;;;;;4360121;32;29886;-46
2021/01/11 12:05:52;;;;;;;;;;;2.50;96.60;;;;;;4346607;33;31604;-46
2021/01/11 12:08:19;;;;;;;;;;;2.50;96.60;;;;;;4346585;33;42867;-46
2021/01/11 12:10:49;;;;;;;;;;;2.50;96.70;;;;;;4360252;33;44375;-46
2021/01/11 12:13:16;;;;;;;;;;;2.50;96.70;;;;;;4346287;33;43540;-46
2021/01/11 12:15:43;;;;;;;;;;;2.50;96.70;;;;;;4359570;33;42891;-46
2021/01/11 12:18:12;;;;;;;;;;;2.50;96.80;;;;;;4360367;32;44289;-47
2021/01/11 12:20:39;;;;;;;;;;;2.50;96.80;;;;;;4362424;32;43556;-46
2021/01/11 12:23:11;;;;;;;;;;;2.60;96.90;;;;;;4362445;32;42283;-46
2021/01/11 12:25:40;;;;;;;;;;;2.60;96.90;;;;;;4336771;32;30636;-46
2021/01/11 12:28:07;;;;;;;;;;;2.60;96.90;;;;;;4362586;32;29762;-46
2021/01/11 12:30:37;;;;;;;;;;;2.60;97.00;;;;;;4362204;32;44134;-46
2021/01/11 12:33:04;;;;;;;;;;;2.60;97.00;;;;;;4362751;32;31783;-46
2021/01/11 12:35:33;;;;;;;;;;;2.60;97.00;;;;;;4361848;32;44103;-46
2021/01/11 12:38:05;;;;;;;;;;;2.60;97.00;;;;;;4361895;32;44464;-46
2021/01/11 12:40:40;;;;;;;;;;;2.70;97.10;;;;;;4349543;32;40198;-47
2021/01/11 12:43:10;;;;;;;;;;;2.60;97.10;;;;;;4361381;32;43121;-47
2021/01/11 12:45:45;;;;;;;;;;;2.70;97.20;;;;;;4362102;32;43201;-47
2021/01/11 12:48:12;;;;;;;;;;;2.70;97.20;;;;;;4361719;32;31132;-47
2021/01/11 12:50:47;;;;;;;;;;;2.70;97.20;;;;;;4361798;32;44349;-46
2021/01/11 12:53:14;;;;;;;;;;;2.70;97.20;;;;;;4360837;32;42233;-47
2021/01/11 12:55:52;;;;;;;;;;;2.70;97.20;;;;;;4362005;32;43006;-46
2021/01/11 12:58:19;;;;;;;;;;;2.70;97.20;;;;;;4362442;32;31236;-47
2021/01/11 13:00:51;;;;;;;;;;;2.70;97.20;;;;;;4361950;32;41923;-47
2021/01/11 13:03:18;;;;;;;;;;;2.70;97.10;;;;;;4361714;32;43221;-47
2021/01/11 13:05:48;;;;;;;;;;;2.80;97.20;;;;;;4361784;32;43262;-46
2021/01/11 13:08:18;;;;;;;;;;;2.80;97.20;;;;;;4349055;32;30366;-47
2021/01/11 13:10:48;;;;;;;;;;;2.80;97.20;;;;;;4362178;32;29517;-47
2021/01/11 13:13:15;;;;;;;;;;;2.80;97.20;;;;;;4360613;32;31304;-47
2021/01/11 13:15:46;;;;;;;;;;;2.80;97.20;;;;;;4361899;32;30256;-47
2021/01/11 13:18:19;;;;;;;;;;;2.80;97.20;;;;;;4361807;32;43736;-47
2021/01/11 13:20:54;;;;;;;;;;;2.80;97.20;;;;;;4348863;32;43506;-46
2021/01/11 13:23:24;;;;;;;;;;;2.80;97.20;;;;;;4348380;32;43469;-47
2021/01/11 13:25:54;;;;;;;;;;;2.80;97.20;;;;;;4347870;32;42978;-47
2021/01/11 13:28:24;;;;;;;;;;;2.90;97.20;;;;;;4347956;32;43641;-47
2021/01/11 13:30:57;;;;;;;;;;;2.90;97.20;;;;;;4349531;32;20005;-47
2021/01/11 13:33:26;;;;;;;;;;;2.90;97.20;;;;;;4336259;32;32168;-46
2021/01/11 13:35:57;;;;;;;;;;;2.90;97.20;;;;;;4348147;32;31858;-47
2021/01/11 13:38:25;;;;;;;;;;;2.90;97.20;;;;;;4361399;32;44369;-47
2021/01/11 13:40:57;;;;;;;;;;;2.90;97.10;;;;;;4360982;32;42030;-46
2021/01/11 13:43:24;;;;;;;;;;;2.90;97.20;;;;;;4361808;32;31409;-47
2021/01/11 13:45:57;;;;;;;;;;;3.00;97.20;;;;;;4347895;32;31371;-47
2021/01/11 13:48:24;;;;;;;;;;;2.90;97.20;;;;;;4361213;32;44304;-47
2021/01/11 13:50:58;;;;;;;;;;;2.90;97.30;;;;;;4361232;32;44262;-47
2021/01/11 13:53:25;;;;;;;;;;;3.00;97.40;;;;;;4361422;32;42974;-47
2021/01/11 13:56:00;;;;;;;;;;;2.90;97.30;;;;;;4361187;32;44344;-47
2021/01/11 13:58:32;;;;;;;;;;;3.00;97.40;;;;;;4361580;32;33754;-48
2021/01/11 14:00:59;;;;;;;;;;;3.00;97.40;;;;;;4361557;32;29815;-47
2021/01/11 14:03:29;;;;;;;;;;;3.00;97.40;;;;;;4360993;32;33617;-46
2021/01/11 14:05:58;;;;;;;;;;;3.00;97.40;;;;;;4361214;32;44318;-48
2021/01/11 14:08:27;;;;;;;;;;;3.00;97.40;;;;;;4347380;32;43379;-47
2021/01/11 14:10:58;;;;;;;;;;;3.00;97.40;;;;;;4361397;32;29912;-47
2021/01/11 14:13:24;;;;;;;;;;;3.00;97.40;;;;;;4347596;32;43272;-46
2021/01/11 14:15:59;;;;;;;;;;;3.00;97.40;;;;;;4361212;32;30842;-47
2021/01/11 14:18:29;;;;;;;;;;;3.00;97.40;;;;;;4361252;32;43813;-47
2021/01/11 14:20:56;;;;;;;;;;;3.00;97.50;;;;;;4360529;32;42887;-47
2021/01/11 14:23:23;;;;;;;;;;;3.00;97.40;;;;;;4347577;32;31728;-47
2021/01/11 14:25:55;;;;;;;;;;;3.00;97.40;;;;;;4361164;32;29643;-47
2021/01/11 14:28:25;;;;;;;;;;;3.00;97.40;;;;;;4360662;32;44426;-48
2021/01/11 14:30:54;;;;;;;;;;;3.00;97.40;;;;;;4347175;32;31875;-48
2021/01/11 14:33:23;;;;;;;;;;;3.00;97.40;;;;;;4360800;32;43307;-47
2021/01/11 14:35:50;;;;;;;;;;;3.00;97.40;;;;;;4360858;32;43156;-47
2021/01/11 14:38:20;;;;;;;;;;;3.00;97.40;;;;;;4348441;32;20000;-48
2021/01/11 14:40:48;;;;;;;;;;;3.00;97.40;;;;;;4360112;32;44117;-47
2021/01/11 14:43:14;;;;;;;;;;;3.10;97.40;;;;;;4360770;32;44002;-47